sensor_id;sensor_type;location;lat;lon;timestamp;P1;durP1;ratioP1;P2;durP2;ratioP2
77581;SDS011;66726;52.388;9.986;2023-04-24T00:00:26;1.33;;;1.23;;
77581;SDS011;66726;52.388;9.986;2023-04-24T00:02:58;1.87;;;1.30;;
77581;SDS011;66726;52.388;9.986;2023-04-24T00:05:30;1.37;;;1.27;;
77581;SDS011;66726;52.388;9.986;2023-04-24T00:08:01;1.50;;;1.40;;
77581;SDS011;66726;52.388;9.986;2023-04-24T00:10:35;2.13;;;1.30;;
77581;SDS011;66726;52.388;9.986;2023-04-24T00:13:07;1.33;;;1.23;;
77581;SDS011;66726;52.388;9.986;2023-04-24T00:15:38;2.20;;;1.30;;
77581;SDS011;66726;52.388;9.986;2023-04-24T00:18:10;1.73;;;1.20;;
77581;SDS011;66726;52.388;9.986;2023-04-24T00:20:42;1.40;;;1.30;;
77581;SDS011;66726;52.388;9.986;2023-04-24T00:23:14;1.30;;;1.20;;
77581;SDS011;66726;52.388;9.986;2023-04-24T00:25:47;1.40;;;1.20;;
77581;SDS011;66726;52.388;9.986;2023-04-24T00:28:19;3.87;;;1.40;;
77581;SDS011;66726;52.388;9.986;2023-04-24T00:30:51;2.10;;;1.40;;
77581;SDS011;66726;52.388;9.986;2023-04-24T00:33:22;1.47;;;1.30;;
77581;SDS011;66726;52.388;9.986;2023-04-24T00:35:54;1.90;;;1.20;;
77581;SDS011;66726;52.388;9.986;2023-04-24T00:38:27;1.30;;;1.20;;
77581;SDS011;66726;52.388;9.986;2023-04-24T00:41:00;1.53;;;1.37;;
77581;SDS011;66726;52.388;9.986;2023-04-24T00:43:31;1.73;;;1.50;;
77581;SDS011;66726;52.388;9.986;2023-04-24T00:46:03;1.60;;;1.50;;
77581;SDS011;66726;52.388;9.986;2023-04-24T00:48:35;1.50;;;1.40;;
77581;SDS011;66726;52.388;9.986;2023-04-24T00:51:08;2.30;;;1.70;;
77581;SDS011;66726;52.388;9.986;2023-04-24T00:53:40;2.30;;;1.40;;
77581;SDS011;66726;52.388;9.986;2023-04-24T00:56:13;2.30;;;1.57;;
77581;SDS011;66726;52.388;9.986;2023-04-24T00:58:46;1.50;;;1.40;;
77581;SDS011;66726;52.388;9.986;2023-04-24T01:01:18;2.70;;;1.50;;
77581;SDS011;66726;52.388;9.986;2023-04-24T01:03:51;2.73;;;1.53;;
77581;SDS011;66726;52.388;9.986;2023-04-24T01:06:26;1.87;;;1.70;;
77581;SDS011;66726;52.388;9.986;2023-04-24T01:08:59;1.90;;;1.60;;
77581;SDS011;66726;52.388;9.986;2023-04-24T01:11:32;2.33;;;1.70;;
77581;SDS011;66726;52.388;9.986;2023-04-24T01:14:04;2.03;;;1.50;;
77581;SDS011;66726;52.388;9.986;2023-04-24T01:16:36;1.83;;;1.63;;
77581;SDS011;66726;52.388;9.986;2023-04-24T01:19:08;3.33;;;1.50;;
77581;SDS011;66726;52.388;9.986;2023-04-24T01:21:44;2.23;;;1.60;;
77581;SDS011;66726;52.388;9.986;2023-04-24T01:24:22;1.80;;;1.53;;
77581;SDS011;66726;52.388;9.986;2023-04-24T01:26:55;1.53;;;1.43;;
77581;SDS011;66726;52.388;9.986;2023-04-24T01:29:28;2.60;;;1.87;;
77581;SDS011;66726;52.388;9.986;2023-04-24T01:31:59;2.30;;;1.57;;
77581;SDS011;66726;52.388;9.986;2023-04-24T01:34:32;1.50;;;1.37;;
77581;SDS011;66726;52.388;9.986;2023-04-24T01:37:06;1.60;;;1.50;;
77581;SDS011;66726;52.388;9.986;2023-04-24T01:39:39;1.60;;;1.50;;
77581;SDS011;66726;52.388;9.986;2023-04-24T01:42:12;1.63;;;1.53;;
77581;SDS011;66726;52.388;9.986;2023-04-24T01:44:44;1.83;;;1.50;;
77581;SDS011;66726;52.388;9.986;2023-04-24T01:47:16;1.80;;;1.67;;
77581;SDS011;66726;52.388;9.986;2023-04-24T01:49:48;1.80;;;1.33;;
77581;SDS011;66726;52.388;9.986;2023-04-24T01:52:21;1.60;;;1.50;;
77581;SDS011;66726;52.388;9.986;2023-04-24T01:54:56;1.80;;;1.30;;
77581;SDS011;66726;52.388;9.986;2023-04-24T01:57:28;1.47;;;1.33;;
77581;SDS011;66726;52.388;9.986;2023-04-24T02:00:00;1.63;;;1.53;;
77581;SDS011;66726;52.388;9.986;2023-04-24T02:02:33;1.40;;;1.30;;
77581;SDS011;66726;52.388;9.986;2023-04-24T02:05:06;1.50;;;1.40;;
77581;SDS011;66726;52.388;9.986;2023-04-24T02:07:38;1.87;;;1.20;;
77581;SDS011;66726;52.388;9.986;2023-04-24T02:10:11;2.70;;;1.50;;
77581;SDS011;66726;52.388;9.986;2023-04-24T02:12:43;1.30;;;1.20;;
77581;SDS011;66726;52.388;9.986;2023-04-24T02:15:15;1.40;;;1.20;;
77581;SDS011;66726;52.388;9.986;2023-04-24T02:17:47;1.13;;;1.03;;
77581;SDS011;66726;52.388;9.986;2023-04-24T02:20:19;2.17;;;1.50;;
77581;SDS011;66726;52.388;9.986;2023-04-24T02:22:50;2.17;;;1.20;;
77581;SDS011;66726;52.388;9.986;2023-04-24T02:25:24;1.40;;;1.30;;
77581;SDS011;66726;52.388;9.986;2023-04-24T02:27:56;2.03;;;1.57;;
77581;SDS011;66726;52.388;9.986;2023-04-24T02:30:28;1.40;;;1.30;;
77581;SDS011;66726;52.388;9.986;2023-04-24T02:33:00;1.30;;;1.20;;
77581;SDS011;66726;52.388;9.986;2023-04-24T02:35:32;1.73;;;1.40;;
77581;SDS011;66726;52.388;9.986;2023-04-24T02:38:04;1.30;;;1.20;;
77581;SDS011;66726;52.388;9.986;2023-04-24T02:40:37;1.50;;;1.40;;
77581;SDS011;66726;52.388;9.986;2023-04-24T02:43:09;1.40;;;1.30;;
77581;SDS011;66726;52.388;9.986;2023-04-24T02:45:40;1.90;;;1.40;;
77581;SDS011;66726;52.388;9.986;2023-04-24T02:48:12;1.63;;;1.30;;
77581;SDS011;66726;52.388;9.986;2023-04-24T02:50:44;3.67;;;1.67;;
77581;SDS011;66726;52.388;9.986;2023-04-24T02:53:16;3.57;;;1.70;;
77581;SDS011;66726;52.388;9.986;2023-04-24T02:55:50;1.80;;;1.70;;
77581;SDS011;66726;52.388;9.986;2023-04-24T02:58:22;1.60;;;1.50;;
77581;SDS011;66726;52.388;9.986;2023-04-24T03:00:54;2.63;;;1.50;;
77581;SDS011;66726;52.388;9.986;2023-04-24T03:03:26;1.53;;;1.43;;
77581;SDS011;66726;52.388;9.986;2023-04-24T03:05:58;2.13;;;1.57;;
77581;SDS011;66726;52.388;9.986;2023-04-24T03:08:32;2.50;;;1.50;;
77581;SDS011;66726;52.388;9.986;2023-04-24T03:11:05;2.00;;;1.80;;
77581;SDS011;66726;52.388;9.986;2023-04-24T03:13:37;2.63;;;1.77;;
77581;SDS011;66726;52.388;9.986;2023-04-24T03:16:09;2.00;;;1.80;;
77581;SDS011;66726;52.388;9.986;2023-04-24T03:18:41;3.53;;;1.77;;
77581;SDS011;66726;52.388;9.986;2023-04-24T03:21:13;1.93;;;1.60;;
77581;SDS011;66726;52.388;9.986;2023-04-24T03:23:45;2.80;;;1.73;;
77581;SDS011;66726;52.388;9.986;2023-04-24T03:26:18;3.10;;;1.77;;
77581;SDS011;66726;52.388;9.986;2023-04-24T03:28:50;1.93;;;1.60;;
77581;SDS011;66726;52.388;9.986;2023-04-24T03:31:22;2.83;;;1.67;;
77581;SDS011;66726;52.388;9.986;2023-04-24T03:33:56;2.37;;;1.83;;
77581;SDS011;66726;52.388;9.986;2023-04-24T03:36:28;1.77;;;1.67;;
77581;SDS011;66726;52.388;9.986;2023-04-24T03:38:59;3.33;;;1.70;;
77581;SDS011;66726;52.388;9.986;2023-04-24T03:41:33;2.40;;;1.70;;
77581;SDS011;66726;52.388;9.986;2023-04-24T03:44:04;1.73;;;1.60;;
77581;SDS011;66726;52.388;9.986;2023-04-24T03:46:36;2.77;;;1.70;;
77581;SDS011;66726;52.388;9.986;2023-04-24T03:49:08;1.73;;;1.60;;
77581;SDS011;66726;52.388;9.986;2023-04-24T03:51:40;2.37;;;1.80;;
77581;SDS011;66726;52.388;9.986;2023-04-24T03:54:12;1.93;;;1.50;;
77581;SDS011;66726;52.388;9.986;2023-04-24T03:56:45;2.63;;;1.80;;
77581;SDS011;66726;52.388;9.986;2023-04-24T03:59:17;3.20;;;1.80;;
77581;SDS011;66726;52.388;9.986;2023-04-24T04:01:48;1.60;;;1.50;;
77581;SDS011;66726;52.388;9.986;2023-04-24T04:04:20;1.50;;;1.40;;
77581;SDS011;66726;52.388;9.986;2023-04-24T04:06:52;1.93;;;1.47;;
77581;SDS011;66726;52.388;9.986;2023-04-24T04:09:27;1.80;;;1.40;;
77581;SDS011;66726;52.388;9.986;2023-04-24T04:12:01;2.27;;;1.60;;
77581;SDS011;66726;52.388;9.986;2023-04-24T04:14:33;2.30;;;1.60;;
77581;SDS011;66726;52.388;9.986;2023-04-24T04:17:04;1.83;;;1.70;;
77581;SDS011;66726;52.388;9.986;2023-04-24T04:19:36;4.90;;;1.60;;
77581;SDS011;66726;52.388;9.986;2023-04-24T04:22:09;1.70;;;1.60;;
77581;SDS011;66726;52.388;9.986;2023-04-24T04:24:41;2.57;;;1.60;;
77581;SDS011;66726;52.388;9.986;2023-04-24T04:27:14;3.33;;;1.70;;
77581;SDS011;66726;52.388;9.986;2023-04-24T04:29:48;2.30;;;1.50;;
77581;SDS011;66726;52.388;9.986;2023-04-24T04:32:20;2.23;;;1.80;;
77581;SDS011;66726;52.388;9.986;2023-04-24T04:34:52;1.70;;;1.60;;
77581;SDS011;66726;52.388;9.986;2023-04-24T04:37:23;1.87;;;1.77;;
77581;SDS011;66726;52.388;9.986;2023-04-24T04:39:55;2.03;;;1.63;;
77581;SDS011;66726;52.388;9.986;2023-04-24T04:42:33;1.70;;;1.60;;
77581;SDS011;66726;52.388;9.986;2023-04-24T04:45:06;1.93;;;1.60;;
77581;SDS011;66726;52.388;9.986;2023-04-24T04:47:42;1.50;;;1.40;;
77581;SDS011;66726;52.388;9.986;2023-04-24T04:50:15;3.50;;;1.80;;
77581;SDS011;66726;52.388;9.986;2023-04-24T04:52:46;2.40;;;1.80;;
77581;SDS011;66726;52.388;9.986;2023-04-24T04:55:18;3.33;;;2.40;;
77581;SDS011;66726;52.388;9.986;2023-04-24T04:57:51;2.53;;;2.33;;
77581;SDS011;66726;52.388;9.986;2023-04-24T05:00:23;2.07;;;1.97;;
77581;SDS011;66726;52.388;9.986;2023-04-24T05:03:01;2.07;;;1.83;;
77581;SDS011;66726;52.388;9.986;2023-04-24T05:05:46;2.90;;;1.97;;
77581;SDS011;66726;52.388;9.986;2023-04-24T05:08:18;2.00;;;1.80;;
77581;SDS011;66726;52.388;9.986;2023-04-24T05:10:53;4.00;;;1.70;;
77581;SDS011;66726;52.388;9.986;2023-04-24T05:13:26;3.20;;;1.50;;
77581;SDS011;66726;52.388;9.986;2023-04-24T05:16:06;2.07;;;1.60;;
77581;SDS011;66726;52.388;9.986;2023-04-24T05:18:38;1.63;;;1.33;;
77581;SDS011;66726;52.388;9.986;2023-04-24T05:21:10;1.60;;;1.50;;
77581;SDS011;66726;52.388;9.986;2023-04-24T05:23:42;1.47;;;1.37;;
77581;SDS011;66726;52.388;9.986;2023-04-24T05:26:13;1.40;;;1.30;;
77581;SDS011;66726;52.388;9.986;2023-04-24T05:28:47;1.40;;;1.13;;
77581;SDS011;66726;52.388;9.986;2023-04-24T05:31:18;3.70;;;1.50;;
77581;SDS011;66726;52.388;9.986;2023-04-24T05:33:51;2.70;;;1.57;;
77581;SDS011;66726;52.388;9.986;2023-04-24T05:36:23;1.53;;;1.40;;
77581;SDS011;66726;52.388;9.986;2023-04-24T05:38:55;2.67;;;1.40;;
77581;SDS011;66726;52.388;9.986;2023-04-24T05:41:27;1.57;;;1.40;;
77581;SDS011;66726;52.388;9.986;2023-04-24T05:44:00;2.70;;;1.57;;
77581;SDS011;66726;52.388;9.986;2023-04-24T05:46:31;1.40;;;1.30;;
77581;SDS011;66726;52.388;9.986;2023-04-24T05:49:03;1.50;;;1.40;;
77581;SDS011;66726;52.388;9.986;2023-04-24T05:51:35;1.63;;;1.33;;
77581;SDS011;66726;52.388;9.986;2023-04-24T05:54:07;1.63;;;1.43;;
77581;SDS011;66726;52.388;9.986;2023-04-24T05:56:39;1.33;;;1.23;;
77581;SDS011;66726;52.388;9.986;2023-04-24T05:59:13;1.60;;;1.50;;
77581;SDS011;66726;52.388;9.986;2023-04-24T06:01:45;1.30;;;1.30;;
77581;SDS011;66726;52.388;9.986;2023-04-24T06:04:17;2.53;;;1.37;;
77581;SDS011;66726;52.388;9.986;2023-04-24T06:06:51;2.43;;;1.47;;
77581;SDS011;66726;52.388;9.986;2023-04-24T06:09:23;1.50;;;1.40;;
77581;SDS011;66726;52.388;9.986;2023-04-24T06:11:54;2.00;;;1.70;;
77581;SDS011;66726;52.388;9.986;2023-04-24T06:14:28;2.00;;;1.80;;
77581;SDS011;66726;52.388;9.986;2023-04-24T06:16:59;3.33;;;1.80;;
77581;SDS011;66726;52.388;9.986;2023-04-24T06:19:31;5.00;;;2.10;;
77581;SDS011;66726;52.388;9.986;2023-04-24T06:22:05;2.50;;;2.03;;
77581;SDS011;66726;52.388;9.986;2023-04-24T06:24:36;1.97;;;1.70;;
77581;SDS011;66726;52.388;9.986;2023-04-24T06:27:08;2.70;;;2.10;;
77581;SDS011;66726;52.388;9.986;2023-04-24T06:29:42;5.07;;;1.90;;
77581;SDS011;66726;52.388;9.986;2023-04-24T06:32:21;2.27;;;1.60;;
77581;SDS011;66726;52.388;9.986;2023-04-24T06:34:51;1.60;;;1.50;;
77581;SDS011;66726;52.388;9.986;2023-04-24T06:37:24;1.70;;;1.60;;
77581;SDS011;66726;52.388;9.986;2023-04-24T06:39:58;2.10;;;1.40;;
77581;SDS011;66726;52.388;9.986;2023-04-24T06:42:33;2.10;;;1.57;;
77581;SDS011;66726;52.388;9.986;2023-04-24T06:45:06;1.77;;;1.67;;
77581;SDS011;66726;52.388;9.986;2023-04-24T06:47:39;2.67;;;1.80;;
77581;SDS011;66726;52.388;9.986;2023-04-24T06:50:11;2.00;;;1.90;;
77581;SDS011;66726;52.388;9.986;2023-04-24T06:52:43;3.10;;;1.80;;
77581;SDS011;66726;52.388;9.986;2023-04-24T06:55:15;2.00;;;1.67;;
77581;SDS011;66726;52.388;9.986;2023-04-24T06:57:47;1.83;;;1.70;;
77581;SDS011;66726;52.388;9.986;2023-04-24T07:00:20;2.63;;;1.90;;
77581;SDS011;66726;52.388;9.986;2023-04-24T07:02:52;3.33;;;1.90;;
77581;SDS011;66726;52.388;9.986;2023-04-24T07:05:24;3.63;;;2.07;;
77581;SDS011;66726;52.388;9.986;2023-04-24T07:07:56;2.30;;;2.10;;
77581;SDS011;66726;52.388;9.986;2023-04-24T07:10:28;3.13;;;2.43;;
77581;SDS011;66726;52.388;9.986;2023-04-24T07:13:01;3.33;;;2.50;;
77581;SDS011;66726;52.388;9.986;2023-04-24T07:15:35;2.97;;;2.20;;
77581;SDS011;66726;52.388;9.986;2023-04-24T07:18:08;2.87;;;2.27;;
77581;SDS011;66726;52.388;9.986;2023-04-24T07:20:40;2.60;;;2.40;;
77581;SDS011;66726;52.388;9.986;2023-04-24T07:23:12;5.57;;;2.87;;
77581;SDS011;66726;52.388;9.986;2023-04-24T07:25:43;3.73;;;2.60;;
77581;SDS011;66726;52.388;9.986;2023-04-24T07:28:15;3.10;;;2.80;;
77581;SDS011;66726;52.388;9.986;2023-04-24T07:30:48;6.97;;;3.20;;
77581;SDS011;66726;52.388;9.986;2023-04-24T07:33:20;4.20;;;3.80;;
77581;SDS011;66726;52.388;9.986;2023-04-24T07:35:52;5.20;;;3.80;;
77581;SDS011;66726;52.388;9.986;2023-04-24T07:38:24;4.63;;;3.97;;
77581;SDS011;66726;52.388;9.986;2023-04-24T07:40:59;5.03;;;4.07;;
77581;SDS011;66726;52.388;9.986;2023-04-24T07:43:30;4.83;;;4.30;;
77581;SDS011;66726;52.388;9.986;2023-04-24T07:46:04;5.57;;;4.30;;
77581;SDS011;66726;52.388;9.986;2023-04-24T07:48:36;5.30;;;4.80;;
77581;SDS011;66726;52.388;9.986;2023-04-24T07:51:08;5.83;;;4.83;;
77581;SDS011;66726;52.388;9.986;2023-04-24T07:53:39;5.10;;;4.60;;
77581;SDS011;66726;52.388;9.986;2023-04-24T07:56:11;5.70;;;4.73;;
77581;SDS011;66726;52.388;9.986;2023-04-24T07:58:44;5.63;;;5.03;;
77581;SDS011;66726;52.388;9.986;2023-04-24T08:01:17;5.93;;;5.40;;
77581;SDS011;66726;52.388;9.986;2023-04-24T08:03:50;5.80;;;5.00;;
77581;SDS011;66726;52.388;9.986;2023-04-24T08:06:22;6.57;;;5.57;;
77581;SDS011;66726;52.388;9.986;2023-04-24T08:08:58;6.50;;;5.43;;
77581;SDS011;66726;52.388;9.986;2023-04-24T08:11:31;5.30;;;4.80;;
77581;SDS011;66726;52.388;9.986;2023-04-24T08:14:04;5.73;;;5.13;;
77581;SDS011;66726;52.388;9.986;2023-04-24T08:16:39;5.73;;;5.10;;
77581;SDS011;66726;52.388;9.986;2023-04-24T08:19:13;6.37;;;5.17;;
77581;SDS011;66726;52.388;9.986;2023-04-24T08:21:44;6.23;;;5.30;;
77581;SDS011;66726;52.388;9.986;2023-04-24T08:24:16;6.00;;;4.97;;
77581;SDS011;66726;52.388;9.986;2023-04-24T08:26:49;5.53;;;5.03;;
77581;SDS011;66726;52.388;9.986;2023-04-24T08:29:22;5.77;;;5.20;;
77581;SDS011;66726;52.388;9.986;2023-04-24T08:31:56;5.97;;;5.47;;
77581;SDS011;66726;52.388;9.986;2023-04-24T08:34:30;6.97;;;5.60;;
77581;SDS011;66726;52.388;9.986;2023-04-24T08:37:03;7.47;;;5.87;;
77581;SDS011;66726;52.388;9.986;2023-04-24T08:39:35;5.40;;;4.90;;
77581;SDS011;66726;52.388;9.986;2023-04-24T08:42:09;6.23;;;5.63;;
77581;SDS011;66726;52.388;9.986;2023-04-24T08:44:46;6.63;;;5.93;;
77581;SDS011;66726;52.388;9.986;2023-04-24T08:47:21;7.47;;;5.63;;
77581;SDS011;66726;52.388;9.986;2023-04-24T08:49:56;7.30;;;5.73;;
77581;SDS011;66726;52.388;9.986;2023-04-24T08:52:31;7.70;;;6.20;;
77581;SDS011;66726;52.388;9.986;2023-04-24T08:55:07;6.93;;;5.77;;
77581;SDS011;66726;52.388;9.986;2023-04-24T08:57:41;5.93;;;5.33;;
77581;SDS011;66726;52.388;9.986;2023-04-24T09:00:19;10.67;;;6.00;;
77581;SDS011;66726;52.388;9.986;2023-04-24T09:02:53;7.27;;;5.77;;
77581;SDS011;66726;52.388;9.986;2023-04-24T09:05:28;6.97;;;6.27;;
77581;SDS011;66726;52.388;9.986;2023-04-24T09:08:02;6.77;;;5.57;;
77581;SDS011;66726;52.388;9.986;2023-04-24T09:10:39;7.23;;;5.20;;
77581;SDS011;66726;52.388;9.986;2023-04-24T09:13:13;7.13;;;5.90;;
77581;SDS011;66726;52.388;9.986;2023-04-24T09:15:47;7.57;;;5.63;;
77581;SDS011;66726;52.388;9.986;2023-04-24T09:18:20;6.10;;;5.07;;
77581;SDS011;66726;52.388;9.986;2023-04-24T09:20:59;5.77;;;5.27;;
77581;SDS011;66726;52.388;9.986;2023-04-24T09:23:34;6.50;;;5.33;;
77581;SDS011;66726;52.388;9.986;2023-04-24T09:26:06;7.33;;;5.00;;
77581;SDS011;66726;52.388;9.986;2023-04-24T09:28:43;6.57;;;5.30;;
77581;SDS011;66726;52.388;9.986;2023-04-24T09:31:15;6.70;;;5.43;;
77581;SDS011;66726;52.388;9.986;2023-04-24T09:33:56;6.97;;;5.13;;
77581;SDS011;66726;52.388;9.986;2023-04-24T09:36:36;5.70;;;5.20;;
77581;SDS011;66726;52.388;9.986;2023-04-24T09:39:11;6.67;;;5.97;;
77581;SDS011;66726;52.388;9.986;2023-04-24T09:41:46;6.47;;;5.47;;
77581;SDS011;66726;52.388;9.986;2023-04-24T09:44:22;5.77;;;5.27;;
77581;SDS011;66726;52.388;9.986;2023-04-24T09:46:56;6.63;;;5.23;;
77581;SDS011;66726;52.388;9.986;2023-04-24T09:49:37;3.60;;;3.30;;
77581;SDS011;66726;52.388;9.986;2023-04-24T09:52:10;3.73;;;3.20;;
77581;SDS011;66726;52.388;9.986;2023-04-24T09:54:45;3.20;;;3.00;;
77581;SDS011;66726;52.388;9.986;2023-04-24T09:57:24;3.93;;;3.53;;
77581;SDS011;66726;52.388;9.986;2023-04-24T09:59:56;3.60;;;3.20;;
77581;SDS011;66726;52.388;9.986;2023-04-24T10:02:30;3.67;;;3.37;;
77581;SDS011;66726;52.388;9.986;2023-04-24T10:05:05;3.87;;;3.50;;
77581;SDS011;66726;52.388;9.986;2023-04-24T10:07:41;3.90;;;3.40;;
77581;SDS011;66726;52.388;9.986;2023-04-24T10:10:16;5.00;;;3.20;;
77581;SDS011;66726;52.388;9.986;2023-04-24T10:12:47;3.53;;;3.23;;
77581;SDS011;66726;52.388;9.986;2023-04-24T10:15:21;3.87;;;3.57;;
77581;SDS011;66726;52.388;9.986;2023-04-24T10:17:54;3.63;;;3.33;;
77581;SDS011;66726;52.388;9.986;2023-04-24T10:20:29;4.53;;;3.20;;
77581;SDS011;66726;52.388;9.986;2023-04-24T10:23:04;3.63;;;3.30;;
77581;SDS011;66726;52.388;9.986;2023-04-24T10:25:38;4.00;;;2.90;;
77581;SDS011;66726;52.388;9.986;2023-04-24T10:28:10;3.37;;;3.07;;
77581;SDS011;66726;52.388;9.986;2023-04-24T10:30:45;3.57;;;3.27;;
77581;SDS011;66726;52.388;9.986;2023-04-24T10:33:17;3.23;;;2.80;;
77581;SDS011;66726;52.388;9.986;2023-04-24T10:35:52;3.10;;;2.80;;
77581;SDS011;66726;52.388;9.986;2023-04-24T10:38:26;3.73;;;2.80;;
77581;SDS011;66726;52.388;9.986;2023-04-24T10:41:07;3.40;;;3.10;;
77581;SDS011;66726;52.388;9.986;2023-04-24T10:43:42;2.97;;;2.70;;
77581;SDS011;66726;52.388;9.986;2023-04-24T10:46:19;3.17;;;2.87;;
77581;SDS011;66726;52.388;9.986;2023-04-24T10:48:55;4.07;;;2.80;;
77581;SDS011;66726;52.388;9.986;2023-04-24T10:51:44;3.33;;;2.70;;
77581;SDS011;66726;52.388;9.986;2023-04-24T10:54:22;3.37;;;2.83;;
77581;SDS011;66726;52.388;9.986;2023-04-24T11:00:10;4.23;;;2.50;;
77581;SDS011;66726;52.388;9.986;2023-04-24T11:02:47;5.03;;;2.73;;
77581;SDS011;66726;52.388;9.986;2023-04-24T11:05:22;3.07;;;2.57;;
77581;SDS011;66726;52.388;9.986;2023-04-24T11:08:23;2.73;;;2.50;;
77581;SDS011;66726;52.388;9.986;2023-04-24T11:10:55;2.50;;;2.20;;
77581;SDS011;66726;52.388;9.986;2023-04-24T11:16:43;2.63;;;2.43;;
77581;SDS011;66726;52.388;9.986;2023-04-24T11:19:23;2.60;;;2.40;;
77581;SDS011;66726;52.388;9.986;2023-04-24T11:21:57;3.13;;;2.20;;
77581;SDS011;66726;52.388;9.986;2023-04-24T11:24:38;2.40;;;2.20;;
77581;SDS011;66726;52.388;9.986;2023-04-24T11:27:21;4.87;;;2.70;;
77581;SDS011;66726;52.388;9.986;2023-04-24T11:30:00;2.93;;;2.10;;
77581;SDS011;66726;52.388;9.986;2023-04-24T11:32:34;3.53;;;2.10;;
77581;SDS011;66726;52.388;9.986;2023-04-24T11:35:14;2.30;;;2.10;;
77581;SDS011;66726;52.388;9.986;2023-04-24T11:37:52;2.20;;;2.00;;
77581;SDS011;66726;52.388;9.986;2023-04-24T11:40:35;2.37;;;2.13;;
77581;SDS011;66726;52.388;9.986;2023-04-24T11:43:09;3.07;;;2.10;;
77581;SDS011;66726;52.388;9.986;2023-04-24T11:45:47;4.83;;;2.30;;
77581;SDS011;66726;52.388;9.986;2023-04-24T11:48:20;2.50;;;2.30;;
77581;SDS011;66726;52.388;9.986;2023-04-24T11:50:52;2.30;;;2.10;;
77581;SDS011;66726;52.388;9.986;2023-04-24T11:53:24;3.00;;;2.10;;
77581;SDS011;66726;52.388;9.986;2023-04-24T11:56:03;3.33;;;2.00;;
77581;SDS011;66726;52.388;9.986;2023-04-24T11:58:36;2.10;;;1.90;;
77581;SDS011;66726;52.388;9.986;2023-04-24T12:01:08;2.97;;;1.90;;
77581;SDS011;66726;52.388;9.986;2023-04-24T12:03:41;3.27;;;1.97;;
77581;SDS011;66726;52.388;9.986;2023-04-24T12:06:17;1.90;;;1.80;;
77581;SDS011;66726;52.388;9.986;2023-04-24T12:08:49;2.33;;;1.70;;
77581;SDS011;66726;52.388;9.986;2023-04-24T12:11:38;1.60;;;1.50;;
77581;SDS011;66726;52.388;9.986;2023-04-24T12:14:23;2.20;;;1.50;;
77581;SDS011;66726;52.388;9.986;2023-04-24T12:16:54;2.23;;;1.30;;
77581;SDS011;66726;52.388;9.986;2023-04-24T12:19:26;1.53;;;1.43;;
77581;SDS011;66726;52.388;9.986;2023-04-24T12:22:00;1.50;;;1.40;;
77581;SDS011;66726;52.388;9.986;2023-04-24T12:24:33;1.40;;;1.30;;
77581;SDS011;66726;52.388;9.986;2023-04-24T12:27:31;1.90;;;1.70;;
77581;SDS011;66726;52.388;9.986;2023-04-24T12:30:04;1.40;;;1.30;;
77581;SDS011;66726;52.388;9.986;2023-04-24T12:32:41;4.13;;;1.47;;
77581;SDS011;66726;52.388;9.986;2023-04-24T12:35:18;2.80;;;1.30;;
77581;SDS011;66726;52.388;9.986;2023-04-24T12:37:53;2.33;;;1.13;;
77581;SDS011;66726;52.388;9.986;2023-04-24T12:40:32;2.10;;;1.17;;
77581;SDS011;66726;52.388;9.986;2023-04-24T12:43:13;2.03;;;1.10;;
77581;SDS011;66726;52.388;9.986;2023-04-24T12:45:47;2.43;;;1.10;;
77581;SDS011;66726;52.388;9.986;2023-04-24T12:48:19;2.23;;;1.30;;
77581;SDS011;66726;52.388;9.986;2023-04-24T12:50:51;1.30;;;1.20;;
77581;SDS011;66726;52.388;9.986;2023-04-24T12:53:23;1.53;;;1.43;;
77581;SDS011;66726;52.388;9.986;2023-04-24T12:55:57;1.53;;;1.43;;
77581;SDS011;66726;52.388;9.986;2023-04-24T12:58:30;2.97;;;1.40;;
77581;SDS011;66726;52.388;9.986;2023-04-24T13:01:02;1.80;;;1.30;;
77581;SDS011;66726;52.388;9.986;2023-04-24T13:03:34;1.40;;;1.30;;
77581;SDS011;66726;52.388;9.986;2023-04-24T13:06:06;1.50;;;1.33;;
77581;SDS011;66726;52.388;9.986;2023-04-24T13:08:38;1.33;;;1.20;;
77581;SDS011;66726;52.388;9.986;2023-04-24T13:11:10;2.03;;;1.23;;
77581;SDS011;66726;52.388;9.986;2023-04-24T13:13:43;1.23;;;1.23;;
77581;SDS011;66726;52.388;9.986;2023-04-24T13:16:15;1.77;;;1.67;;
77581;SDS011;66726;52.388;9.986;2023-04-24T13:18:49;1.80;;;1.53;;
77581;SDS011;66726;52.388;9.986;2023-04-24T13:21:20;2.87;;;1.70;;
77581;SDS011;66726;52.388;9.986;2023-04-24T13:23:53;1.80;;;1.70;;
77581;SDS011;66726;52.388;9.986;2023-04-24T13:26:25;2.00;;;1.47;;
77581;SDS011;66726;52.388;9.986;2023-04-24T13:28:58;1.50;;;1.40;;
77581;SDS011;66726;52.388;9.986;2023-04-24T13:31:30;2.60;;;1.33;;
77581;SDS011;66726;52.388;9.986;2023-04-24T13:34:02;3.00;;;1.70;;
77581;SDS011;66726;52.388;9.986;2023-04-24T13:36:34;2.13;;;1.60;;
77581;SDS011;66726;52.388;9.986;2023-04-24T13:39:06;1.60;;;1.50;;
77581;SDS011;66726;52.388;9.986;2023-04-24T13:41:38;1.30;;;1.20;;
77581;SDS011;66726;52.388;9.986;2023-04-24T13:44:11;2.20;;;1.40;;
77581;SDS011;66726;52.388;9.986;2023-04-24T13:46:44;2.43;;;1.30;;
77581;SDS011;66726;52.388;9.986;2023-04-24T13:49:20;1.43;;;1.33;;
77581;SDS011;66726;52.388;9.986;2023-04-24T13:51:53;2.73;;;1.20;;
77581;SDS011;66726;52.388;9.986;2023-04-24T13:54:25;2.50;;;1.30;;
77581;SDS011;66726;52.388;9.986;2023-04-24T13:56:57;1.63;;;1.30;;
77581;SDS011;66726;52.388;9.986;2023-04-24T13:59:31;1.50;;;1.40;;
77581;SDS011;66726;52.388;9.986;2023-04-24T14:02:03;1.17;;;1.07;;
77581;SDS011;66726;52.388;9.986;2023-04-24T14:04:35;0.93;;;0.90;;
77581;SDS011;66726;52.388;9.986;2023-04-24T14:07:07;1.40;;;1.30;;
77581;SDS011;66726;52.388;9.986;2023-04-24T14:09:39;1.50;;;1.40;;
77581;SDS011;66726;52.388;9.986;2023-04-24T14:12:11;2.53;;;1.20;;
77581;SDS011;66726;52.388;9.986;2023-04-24T14:14:47;1.30;;;1.20;;
77581;SDS011;66726;52.388;9.986;2023-04-24T14:17:18;1.57;;;0.87;;
77581;SDS011;66726;52.388;9.986;2023-04-24T14:19:50;0.70;;;0.70;;
77581;SDS011;66726;52.388;9.986;2023-04-24T14:22:23;1.07;;;0.97;;
77581;SDS011;66726;52.388;9.986;2023-04-24T14:24:54;0.80;;;0.80;;
77581;SDS011;66726;52.388;9.986;2023-04-24T14:27:26;0.80;;;0.80;;
77581;SDS011;66726;52.388;9.986;2023-04-24T14:30:00;1.17;;;0.90;;
77581;SDS011;66726;52.388;9.986;2023-04-24T14:32:33;1.13;;;0.97;;
77581;SDS011;66726;52.388;9.986;2023-04-24T14:35:05;2.20;;;1.20;;
77581;SDS011;66726;52.388;9.986;2023-04-24T14:37:38;1.30;;;1.20;;
77581;SDS011;66726;52.388;9.986;2023-04-24T14:40:10;2.87;;;1.37;;
77581;SDS011;66726;52.388;9.986;2023-04-24T14:43:02;2.07;;;1.57;;
77581;SDS011;66726;52.388;9.986;2023-04-24T14:45:35;2.50;;;1.60;;
77581;SDS011;66726;52.388;9.986;2023-04-24T14:48:08;1.93;;;1.77;;
77581;SDS011;66726;52.388;9.986;2023-04-24T14:50:40;2.20;;;2.00;;
77581;SDS011;66726;52.388;9.986;2023-04-24T14:53:12;1.70;;;1.53;;
77581;SDS011;66726;52.388;9.986;2023-04-24T14:55:43;3.10;;;2.10;;
77581;SDS011;66726;52.388;9.986;2023-04-24T14:58:17;2.57;;;2.30;;
77581;SDS011;66726;52.388;9.986;2023-04-24T15:00:50;2.93;;;2.17;;
77581;SDS011;66726;52.388;9.986;2023-04-24T15:03:22;2.53;;;2.20;;
77581;SDS011;66726;52.388;9.986;2023-04-24T15:05:56;2.93;;;2.20;;
77581;SDS011;66726;52.388;9.986;2023-04-24T15:08:28;4.27;;;2.87;;
77581;SDS011;66726;52.388;9.986;2023-04-24T15:11:00;4.37;;;2.73;;
77581;SDS011;66726;52.388;9.986;2023-04-24T15:13:31;4.07;;;2.60;;
77581;SDS011;66726;52.388;9.986;2023-04-24T15:16:03;3.97;;;2.70;;
77581;SDS011;66726;52.388;9.986;2023-04-24T15:18:35;6.63;;;3.43;;
77581;SDS011;66726;52.388;9.986;2023-04-24T15:21:06;5.30;;;3.47;;
77581;SDS011;66726;52.388;9.986;2023-04-24T15:23:41;7.60;;;3.23;;
77581;SDS011;66726;52.388;9.986;2023-04-24T15:26:13;6.00;;;3.30;;
77581;SDS011;66726;52.388;9.986;2023-04-24T15:28:45;6.17;;;3.20;;
77581;SDS011;66726;52.388;9.986;2023-04-24T15:31:19;5.97;;;3.50;;